Marcus, Washington
Current Conditions -  °F | °C
As of 1:00 PM on Wednesday 17 Dec 2014 (Local Time) from CYCG Reporting Station
Snow Showers Snow Showers  
Wind Chill: 30°   Ceiling: 5600
Heat Index: 34°   Visibility: 12mi
Dew Point: 30°   Wind: 5mph
Humidity: 87%   Direction: 360°N
Pressure: 29.98"   Gusts: NA
Location:  48.66°N, 118.07°W
Report Text: CYCG 172100Z 36004KT 12SM -SHSN FEW009 SCT022 BKN056 01/M01 A2998 RMK SF1SC3SC3 SLP172
Loading
Personal Weather Stations






























Interactive Weather Map New forecast layout! Learn more

10-Day Weather Forecast

Advertisements
Track Severe Weather on mobile